createdAt,value
2023-02-27T00:00:58.972Z,1.30
2023-02-27T00:03:27.366Z,1.30
2023-02-27T00:05:57.780Z,1.20
2023-02-27T00:08:25.108Z,1.20
2023-02-27T00:10:52.784Z,1.20
2023-02-27T00:13:20.049Z,1.20
2023-02-27T00:15:50.361Z,1.20
2023-02-27T00:18:17.834Z,1.20
2023-02-27T00:20:48.605Z,1.20
2023-02-27T00:23:15.926Z,1.20
2023-02-27T00:25:43.042Z,1.20
2023-02-27T00:28:10.190Z,1.20
2023-02-27T00:30:37.321Z,1.20
2023-02-27T00:33:04.889Z,1.20
2023-02-27T00:35:32.031Z,1.20
2023-02-27T00:38:02.428Z,1.20
2023-02-27T00:40:30.618Z,1.30
2023-02-27T00:43:00.931Z,1.30
2023-02-27T00:45:28.227Z,1.30
2023-02-27T00:47:55.518Z,1.30
2023-02-27T00:50:25.577Z,1.30
2023-02-27T00:52:52.719Z,1.30
2023-02-27T00:55:19.856Z,1.30
2023-02-27T00:57:47.032Z,1.40
2023-02-27T01:00:14.698Z,1.40
2023-02-27T01:02:42.146Z,1.40
2023-02-27T01:05:10.245Z,1.50
2023-02-27T01:07:37.963Z,1.60
2023-02-27T01:10:07.614Z,1.60
2023-02-27T01:12:35.161Z,1.60
2023-02-27T01:15:03.869Z,1.70
2023-02-27T01:17:31.368Z,1.70
2023-02-27T01:19:58.934Z,1.70
2023-02-27T01:22:26.160Z,1.70
2023-02-27T01:24:53.281Z,1.80
2023-02-27T01:27:20.486Z,1.80
2023-02-27T01:29:47.686Z,1.80
2023-02-27T01:32:15.167Z,1.80
2023-02-27T01:34:42.564Z,1.80
2023-02-27T01:37:10.138Z,1.80
2023-02-27T01:39:37.329Z,1.90
2023-02-27T01:42:06.591Z,1.90
2023-02-27T01:45:11.978Z,1.90
2023-02-27T01:47:54.443Z,1.90
2023-02-27T01:50:25.690Z,2.00
2023-02-27T01:52:59.879Z,2.00
2023-02-27T01:55:31.331Z,2.00
2023-02-27T01:57:58.895Z,2.00
2023-02-27T02:00:27.260Z,2.00
2023-02-27T02:03:17.146Z,2.00
2023-02-27T02:05:46.952Z,2.00
2023-02-27T02:08:23.114Z,2.00
2023-02-27T02:10:53.547Z,2.00
2023-02-27T02:13:24.108Z,2.00
2023-02-27T02:16:48.959Z,2.00
2023-02-27T02:19:53.501Z,2.00
2023-02-27T02:22:57.208Z,2.00
2023-02-27T02:26:05.236Z,2.00
2023-02-27T02:29:10.550Z,2.00
2023-02-27T02:31:56.065Z,2.00
2023-02-27T02:34:28.852Z,2.00
2023-02-27T02:37:32.650Z,2.00
2023-02-27T02:40:27.385Z,2.00
2023-02-27T02:43:14.566Z,2.00
2023-02-27T02:46:23.027Z,2.10
2023-02-27T02:49:03.554Z,2.00
2023-02-27T02:51:41.180Z,2.00
2023-02-27T02:54:45.406Z,2.00
2023-02-27T02:57:17.518Z,2.00
2023-02-27T03:00:12.434Z,2.00
2023-02-27T03:03:18.776Z,2.00
2023-02-27T03:05:58.099Z,2.00
2023-02-27T03:08:31.296Z,2.00
2023-02-27T03:11:00.916Z,1.90
2023-02-27T03:13:54.774Z,1.90
2023-02-27T03:16:44.980Z,1.80
2023-02-27T03:19:23.548Z,1.80
2023-02-27T03:22:38.837Z,1.70
2023-02-27T03:25:11.002Z,1.70
2023-02-27T03:27:57.569Z,1.70
2023-02-27T03:30:40.616Z,1.70
2023-02-27T03:33:24.266Z,1.70
2023-02-27T03:36:32.425Z,1.70
2023-02-27T03:39:27.690Z,1.60
2023-02-27T03:42:18.262Z,1.60
2023-02-27T03:45:08.373Z,1.60
2023-02-27T03:47:36.032Z,1.50
2023-02-27T03:50:03.568Z,1.50
2023-02-27T03:52:31.631Z,1.50
2023-02-27T03:55:17.091Z,1.50
2023-02-27T03:57:46.822Z,1.40
2023-02-27T04:00:24.293Z,1.40
2023-02-27T04:02:54.828Z,1.30
2023-02-27T04:05:23.281Z,1.30
2023-02-27T04:08:18.998Z,1.30
2023-02-27T04:11:17.858Z,1.30
2023-02-27T04:14:07.456Z,1.40
2023-02-27T04:17:18.482Z,1.40
2023-02-27T04:20:25.393Z,1.40
2023-02-27T04:23:08.904Z,1.40
2023-02-27T04:26:09.653Z,1.40
2023-02-27T04:28:45.700Z,1.40
2023-02-27T04:31:39.743Z,1.40
2023-02-27T04:34:16.042Z,1.50
2023-02-27T04:37:01.388Z,1.50
2023-02-27T04:39:56.410Z,1.50
2023-02-27T04:42:30.250Z,1.50
2023-02-27T04:45:04.739Z,1.50
2023-02-27T04:47:59.143Z,1.40
2023-02-27T04:50:44.476Z,1.50
2023-02-27T04:53:20.447Z,1.50
2023-02-27T04:55:57.587Z,1.50
2023-02-27T04:58:33.689Z,1.50
2023-02-27T05:01:11.277Z,1.40
2023-02-27T05:03:48.432Z,1.40
2023-02-27T05:06:19.178Z,1.50
2023-02-27T05:09:41.162Z,1.40
2023-02-27T05:12:19.712Z,1.40
2023-02-27T05:15:06.523Z,1.40
2023-02-27T05:17:50.471Z,1.40
2023-02-27T05:20:18.467Z,1.40
2023-02-27T05:23:06.487Z,1.30
2023-02-27T05:26:42.900Z,1.30
2023-02-27T05:29:32.393Z,1.30
2023-02-27T05:32:33.652Z,1.30
2023-02-27T05:35:29.737Z,1.30
2023-02-27T05:38:28.540Z,1.20
2023-02-27T05:41:26.021Z,1.20
2023-02-27T05:44:13.991Z,1.20
2023-02-27T05:46:49.628Z,1.20
2023-02-27T05:49:31.074Z,1.10
2023-02-27T05:52:03.236Z,1.10
2023-02-27T05:54:53.570Z,1.10
2023-02-27T05:57:33.833Z,1.00
2023-02-27T06:00:24.266Z,1.00
2023-02-27T06:02:54.770Z,1.00
2023-02-27T06:05:23.105Z,1.00
2023-02-27T06:07:50.324Z,1.00
2023-02-27T06:10:20.701Z,1.00
2023-02-27T06:12:47.976Z,1.00
2023-02-27T06:15:15.548Z,1.00
2023-02-27T06:17:43.448Z,1.00
2023-02-27T06:20:11.987Z,1.00
2023-02-27T06:22:42.153Z,0.90
2023-02-27T06:25:10.183Z,1.00
2023-02-27T06:27:37.713Z,1.00
2023-02-27T06:30:09.301Z,1.00
2023-02-27T06:32:36.847Z,1.00
2023-02-27T06:35:06.046Z,1.00
2023-02-27T06:37:33.757Z,1.00
2023-02-27T06:40:00.976Z,1.00
2023-02-27T06:42:28.320Z,1.00
2023-02-27T06:44:56.046Z,1.00
2023-02-27T06:47:23.504Z,1.00
2023-02-27T06:49:50.636Z,1.10
2023-02-27T06:52:17.784Z,1.10
2023-02-27T06:54:44.969Z,1.10
2023-02-27T06:57:13.400Z,1.10
2023-02-27T06:59:46.928Z,1.20
2023-02-27T07:02:16.374Z,1.20
2023-02-27T07:04:47.068Z,1.20
2023-02-27T07:07:32.814Z,1.30
2023-02-27T07:10:02.075Z,1.30
2023-02-27T07:12:29.383Z,1.40
2023-02-27T07:14:56.654Z,1.40
2023-02-27T07:17:23.842Z,1.50
2023-02-27T07:19:51.037Z,1.50
2023-02-27T07:22:21.100Z,1.60
2023-02-27T07:24:48.174Z,1.60
2023-02-27T07:27:15.375Z,1.70
2023-02-27T07:29:45.414Z,1.80
2023-02-27T07:32:12.663Z,1.80
2023-02-27T07:34:40.042Z,1.90
2023-02-27T07:37:13.275Z,2.10
2023-02-27T07:39:40.681Z,2.10
2023-02-27T07:42:07.944Z,2.20
2023-02-27T07:44:35.180Z,2.30
2023-02-27T07:47:02.425Z,2.40
2023-02-27T07:49:29.614Z,2.50
2023-02-27T07:51:59.591Z,2.60
2023-02-27T07:54:27.678Z,2.70
2023-02-27T07:56:55.028Z,2.70
2023-02-27T07:59:23.490Z,2.90
2023-02-27T08:01:50.726Z,2.90
2023-02-27T08:04:17.865Z,3.00
2023-02-27T08:06:45.096Z,3.10
2023-02-27T08:09:12.275Z,3.20
2023-02-27T08:11:42.529Z,3.30
2023-02-27T08:14:09.757Z,3.40
2023-02-27T08:16:37.355Z,3.40
2023-02-27T08:19:04.758Z,3.50
2023-02-27T08:21:32.402Z,3.60
2023-02-27T08:23:59.657Z,3.80
2023-02-27T08:26:27.225Z,3.80
2023-02-27T08:28:57.806Z,3.90
2023-02-27T08:31:25.157Z,4.00
2023-02-27T08:34:01.061Z,4.00
2023-02-27T08:36:35.463Z,4.10
2023-02-27T08:39:02.602Z,4.20
2023-02-27T08:41:29.895Z,4.30
2023-02-27T08:43:59.726Z,4.30
2023-02-27T08:46:30.245Z,4.30
2023-02-27T08:49:00.498Z,4.40
2023-02-27T08:51:28.041Z,4.50
2023-02-27T08:53:58.865Z,4.70
2023-02-27T08:56:28.197Z,4.80
2023-02-27T08:58:56.588Z,4.80
2023-02-27T09:01:26.163Z,4.90
2023-02-27T09:03:53.708Z,5.00
2023-02-27T09:06:20.810Z,5.00
2023-02-27T09:08:48.042Z,4.90
2023-02-27T09:11:15.192Z,4.80
2023-02-27T09:13:42.340Z,4.70
2023-02-27T09:16:10.319Z,4.60
2023-02-27T09:18:37.500Z,4.60
2023-02-27T09:21:04.751Z,4.50
2023-02-27T09:23:31.938Z,4.40
2023-02-27T09:25:59.276Z,4.40
2023-02-27T09:28:26.471Z,4.40
2023-02-27T09:30:53.765Z,4.50
2023-02-27T09:33:24.767Z,4.50
2023-02-27T09:35:51.965Z,4.70
2023-02-27T09:38:19.064Z,4.70
2023-02-27T09:40:49.886Z,4.80
2023-02-27T09:43:24.343Z,4.90
2023-02-27T09:45:56.117Z,4.90
2023-02-27T09:48:50.067Z,4.80
2023-02-27T09:51:22.969Z,4.70
2023-02-27T09:53:58.788Z,4.80
2023-02-27T09:56:32.831Z,4.90
2023-02-27T09:59:55.360Z,5.10
2023-02-27T10:03:10.983Z,5.20
2023-02-27T10:06:15.274Z,5.10
2023-02-27T10:09:19.252Z,5.10
2023-02-27T10:12:06.368Z,5.10
2023-02-27T10:15:00.726Z,5.20
2023-02-27T10:17:48.464Z,5.20
2023-02-27T10:20:32.573Z,5.10
2023-02-27T10:23:17.463Z,5.10
2023-02-27T10:25:49.972Z,5.10
2023-02-27T10:28:20.893Z,5.10
2023-02-27T10:30:55.688Z,5.10
2023-02-27T10:33:40.333Z,5.10
2023-02-27T10:36:15.927Z,5.10
2023-02-27T10:39:01.152Z,5.10
2023-02-27T10:41:29.302Z,5.10
2023-02-27T10:44:00.981Z,5.10
2023-02-27T10:46:35.714Z,5.10
2023-02-27T10:49:19.190Z,5.10
2023-02-27T10:52:04.382Z,5.10
2023-02-27T10:54:31.899Z,5.10
2023-02-27T10:57:03.039Z,5.10
2023-02-27T10:59:38.726Z,5.30
2023-02-27T11:02:18.102Z,5.50
2023-02-27T11:04:53.925Z,5.60
2023-02-27T11:07:47.941Z,5.60
2023-02-27T11:10:17.051Z,5.60
2023-02-27T11:13:21.616Z,5.50
2023-02-27T11:16:13.660Z,5.30
2023-02-27T11:18:43.912Z,5.20
2023-02-27T11:21:13.808Z,5.00
2023-02-27T11:24:07.812Z,4.90
2023-02-27T11:26:53.410Z,4.90
2023-02-27T11:29:21.734Z,5.00
2023-02-27T11:32:15.580Z,5.30
2023-02-27T11:34:51.729Z,5.70
2023-02-27T11:37:37.010Z,6.00
2023-02-27T11:40:11.053Z,6.10
2023-02-27T11:42:53.692Z,5.90
2023-02-27T11:46:13.374Z,5.70
2023-02-27T11:48:47.412Z,5.40
2023-02-27T11:51:50.045Z,5.20
2023-02-27T11:54:48.670Z,5.10
2023-02-27T11:57:34.645Z,4.90
2023-02-27T12:00:40.132Z,4.90
2023-02-27T12:03:22.760Z,4.80
2023-02-27T12:06:00.866Z,4.90
2023-02-27T12:08:47.545Z,4.90
2023-02-27T12:11:44.259Z,5.00
2023-02-27T12:14:26.269Z,5.30
2023-02-27T12:17:09.852Z,5.90
2023-02-27T12:19:47.168Z,6.30
2023-02-27T12:22:29.104Z,6.60
2023-02-27T12:25:29.618Z,6.50
2023-02-27T12:28:48.865Z,6.30
2023-02-27T12:31:34.745Z,6.10
2023-02-27T12:34:29.501Z,5.90
2023-02-27T12:37:17.259Z,5.80
2023-02-27T12:39:48.138Z,5.70
2023-02-27T12:42:32.999Z,5.70
2023-02-27T12:45:09.298Z,5.60
2023-02-27T12:48:17.210Z,5.60
2023-02-27T12:51:02.609Z,5.60
2023-02-27T12:53:44.407Z,5.70
2023-02-27T12:56:21.027Z,5.80
2023-02-27T12:59:21.694Z,5.90
2023-02-27T13:01:57.618Z,5.90
2023-02-27T13:04:44.869Z,6.00
2023-02-27T13:07:27.102Z,5.90
2023-02-27T13:10:03.514Z,5.80
2023-02-27T13:12:46.000Z,5.70
2023-02-27T13:15:19.750Z,5.70
2023-02-27T13:18:10.213Z,5.60
2023-02-27T13:20:53.761Z,5.60
2023-02-27T13:24:00.184Z,5.50
2023-02-27T13:26:52.553Z,5.50
2023-02-27T13:29:23.191Z,5.50
2023-02-27T13:32:46.788Z,5.50
2023-02-27T13:35:39.584Z,5.50
2023-02-27T13:38:47.037Z,5.50
2023-02-27T13:41:29.146Z,5.60
2023-02-27T13:43:58.981Z,5.50
2023-02-27T13:46:34.087Z,5.50
2023-02-27T13:49:20.025Z,5.40
2023-02-27T13:52:02.052Z,5.20
2023-02-27T13:54:33.832Z,5.10
2023-02-27T13:57:21.470Z,5.00
2023-02-27T14:00:02.069Z,5.00
2023-02-27T14:02:57.980Z,4.90
2023-02-27T14:05:40.450Z,4.90
2023-02-27T14:08:24.744Z,4.90
2023-02-27T14:11:18.410Z,4.90
2023-02-27T14:13:45.479Z,4.90
2023-02-27T14:16:44.153Z,4.90
2023-02-27T14:19:19.699Z,4.90
2023-02-27T14:22:03.694Z,4.90
2023-02-27T14:24:49.730Z,4.90
2023-02-27T14:27:45.156Z,4.90
2023-02-27T14:30:53.123Z,4.90
2023-02-27T14:33:39.529Z,4.90
2023-02-27T14:36:22.679Z,4.90
2023-02-27T14:38:53.658Z,4.90
2023-02-27T14:41:39.517Z,5.00
2023-02-27T14:44:20.571Z,5.00
2023-02-27T14:46:49.192Z,5.00
2023-02-27T14:49:29.218Z,4.90
2023-02-27T14:51:57.369Z,5.00
2023-02-27T14:54:28.109Z,5.00
2023-02-27T14:57:01.926Z,5.00
2023-02-27T14:59:36.864Z,5.00
2023-02-27T15:02:16.079Z,5.00
2023-02-27T15:04:44.554Z,4.90
2023-02-27T15:07:24.771Z,4.80
2023-02-27T15:09:58.924Z,4.80
2023-02-27T15:12:28.322Z,4.80
2023-02-27T15:15:02.249Z,4.70
2023-02-27T15:17:39.908Z,4.70
2023-02-27T15:20:24.979Z,4.70
2023-02-27T15:22:52.096Z,4.60
2023-02-27T15:25:37.492Z,4.60
2023-02-27T15:28:23.437Z,4.60
2023-02-27T15:30:56.708Z,4.60
2023-02-27T15:33:33.488Z,4.60
2023-02-27T15:36:05.157Z,4.60
2023-02-27T15:38:36.092Z,4.50
2023-02-27T15:41:04.510Z,4.50
2023-02-27T15:43:31.930Z,4.40
2023-02-27T15:45:59.412Z,4.40
2023-02-27T15:48:26.999Z,4.40
2023-02-27T15:50:59.338Z,4.40
2023-02-27T15:53:30.116Z,4.40
2023-02-27T15:56:06.307Z,4.30
2023-02-27T15:58:53.932Z,4.30
2023-02-27T16:01:26.884Z,4.30
2023-02-27T16:04:00.877Z,4.30
2023-02-27T16:06:41.425Z,4.30
2023-02-27T16:09:35.624Z,4.30
2023-02-27T16:12:27.539Z,4.30
2023-02-27T16:15:10.137Z,4.20
2023-02-27T16:17:38.016Z,4.20
2023-02-27T16:20:29.939Z,4.20
2023-02-27T16:23:20.739Z,4.20
2023-02-27T16:26:32.407Z,4.10
2023-02-27T16:29:04.290Z,4.10
2023-02-27T16:31:38.602Z,4.10
2023-02-27T16:34:16.616Z,4.00
2023-02-27T16:37:01.847Z,4.00
2023-02-27T16:39:29.698Z,4.10
2023-02-27T16:41:59.507Z,4.00
2023-02-27T16:44:27.663Z,4.00
2023-02-27T16:46:56.748Z,4.00
2023-02-27T16:49:33.203Z,3.90
2023-02-27T16:52:06.331Z,3.90
2023-02-27T16:54:36.793Z,3.90
2023-02-27T16:57:08.338Z,3.90
2023-02-27T16:59:41.182Z,3.90
2023-02-27T17:02:15.528Z,3.90
2023-02-27T17:04:44.594Z,3.80
2023-02-27T17:07:17.510Z,3.80
2023-02-27T17:09:48.622Z,3.80
2023-02-27T17:12:16.790Z,3.80
2023-02-27T17:14:48.084Z,3.80
2023-02-27T17:17:17.224Z,3.80
2023-02-27T17:19:47.979Z,3.80
2023-02-27T17:22:16.269Z,3.80
2023-02-27T17:24:47.647Z,3.70
2023-02-27T17:27:19.276Z,3.70
2023-02-27T17:29:47.606Z,3.70
2023-02-27T17:32:15.778Z,3.70
2023-02-27T17:34:44.722Z,3.70
2023-02-27T17:37:12.649Z,3.60
2023-02-27T17:39:41.323Z,3.60
2023-02-27T17:42:09.604Z,3.60
2023-02-27T17:44:40.520Z,3.60
2023-02-27T17:47:13.290Z,3.60
2023-02-27T17:49:42.195Z,3.60
2023-02-27T17:52:13.851Z,3.60
2023-02-27T17:54:41.392Z,3.60
2023-02-27T17:57:12.974Z,3.60
2023-02-27T17:59:41.442Z,3.50
2023-02-27T18:02:16.773Z,3.50
2023-02-27T18:04:46.618Z,3.50
2023-02-27T18:07:16.216Z,3.50
2023-02-27T18:09:48.213Z,3.50
2023-02-27T18:12:16.206Z,3.50
2023-02-27T18:14:45.089Z,3.50
2023-02-27T18:17:14.444Z,3.50
2023-02-27T18:19:44.105Z,3.40
2023-02-27T18:22:15.848Z,3.40
2023-02-27T18:24:44.433Z,3.40
2023-02-27T18:27:16.394Z,3.40
2023-02-27T18:29:44.778Z,3.40
2023-02-27T18:32:14.982Z,3.30
2023-02-27T18:34:44.158Z,3.40
2023-02-27T18:37:13.139Z,3.30
2023-02-27T18:39:43.257Z,3.30
2023-02-27T18:42:14.930Z,3.20
2023-02-27T18:44:44.471Z,3.30
2023-02-27T18:47:14.135Z,3.20
2023-02-27T18:49:46.594Z,3.20
2023-02-27T18:52:16.153Z,3.30
2023-02-27T18:54:44.527Z,3.20
2023-02-27T18:57:14.959Z,3.20
2023-02-27T18:59:48.027Z,3.20
2023-02-27T19:02:20.761Z,3.20
2023-02-27T19:04:54.488Z,3.20
2023-02-27T19:07:23.870Z,3.20
2023-02-27T19:09:55.357Z,3.20
2023-02-27T19:12:24.037Z,3.10
2023-02-27T19:15:04.151Z,3.10
2023-02-27T19:17:34.060Z,3.10
2023-02-27T19:20:02.660Z,3.10
2023-02-27T19:22:31.309Z,3.10
2023-02-27T19:25:04.739Z,3.00
2023-02-27T19:27:35.124Z,3.00
2023-02-27T19:30:05.899Z,3.00
2023-02-27T19:32:35.232Z,3.00
2023-02-27T19:35:06.774Z,3.00
2023-02-27T19:37:42.153Z,3.00
2023-02-27T19:40:12.066Z,3.00
2023-02-27T19:42:41.039Z,3.00
2023-02-27T19:45:15.885Z,3.00
2023-02-27T19:47:48.255Z,2.90
2023-02-27T19:50:17.955Z,2.90
2023-02-27T19:52:49.320Z,2.90
2023-02-27T19:55:20.063Z,2.90
2023-02-27T19:57:52.262Z,2.90
2023-02-27T20:00:23.016Z,2.90
2023-02-27T20:02:52.084Z,2.90
2023-02-27T20:05:21.613Z,2.80
2023-02-27T20:07:53.635Z,2.80
2023-02-27T20:10:22.360Z,2.80
2023-02-27T20:12:51.075Z,2.80
2023-02-27T20:15:19.839Z,2.70
2023-02-27T20:17:48.066Z,2.70
2023-02-27T20:20:26.441Z,2.70
2023-02-27T20:22:55.107Z,2.70
2023-02-27T20:25:26.673Z,2.70
2023-02-27T20:27:55.192Z,2.70
2023-02-27T20:30:24.493Z,2.70
2023-02-27T20:32:54.686Z,2.60
2023-02-27T20:35:26.027Z,2.60
2023-02-27T20:37:55.320Z,2.60
2023-02-27T20:40:26.018Z,2.60
2023-02-27T20:42:55.331Z,2.60
2023-02-27T20:45:24.900Z,2.60
2023-02-27T20:47:55.847Z,2.60
2023-02-27T20:50:24.264Z,2.60
2023-02-27T20:52:56.570Z,2.60
2023-02-27T20:55:28.513Z,2.60
2023-02-27T20:57:57.539Z,2.60
2023-02-27T21:00:27.177Z,2.60
2023-02-27T21:03:01.260Z,2.60
2023-02-27T21:05:35.615Z,2.60
2023-02-27T21:08:03.886Z,2.50
2023-02-27T21:10:32.013Z,2.50
2023-02-27T21:12:59.875Z,2.50
2023-02-27T21:15:27.795Z,2.50
2023-02-27T21:17:56.983Z,2.50
2023-02-27T21:20:24.300Z,2.50
2023-02-27T21:22:51.916Z,2.50
2023-02-27T21:25:20.198Z,2.50
2023-02-27T21:27:47.597Z,2.50
2023-02-27T21:30:21.466Z,2.50
2023-02-27T21:32:48.992Z,2.50
2023-02-27T21:35:16.510Z,2.50
2023-02-27T21:37:46.918Z,2.50
2023-02-27T21:40:15.249Z,2.50
2023-02-27T21:42:45.751Z,2.40
2023-02-27T21:45:16.368Z,2.40
2023-02-27T21:47:43.640Z,2.40
2023-02-27T21:50:14.132Z,2.40
2023-02-27T21:52:43.447Z,2.40
2023-02-27T21:55:12.236Z,2.30
2023-02-27T21:57:40.650Z,2.30
2023-02-27T22:00:11.533Z,2.30
2023-02-27T22:02:39.656Z,2.30
2023-02-27T22:05:07.760Z,2.30
2023-02-27T22:07:35.055Z,2.30
2023-02-27T22:10:02.768Z,2.30
2023-02-27T22:12:30.338Z,2.30
2023-02-27T22:14:57.557Z,2.30
2023-02-27T22:17:24.742Z,2.30
2023-02-27T22:19:52.920Z,2.30
2023-02-27T22:22:20.175Z,2.20
2023-02-27T22:24:47.503Z,2.20
2023-02-27T22:27:14.722Z,2.30
2023-02-27T22:29:43.093Z,2.20
2023-02-27T22:32:10.477Z,2.20
2023-02-27T22:34:37.760Z,2.20
2023-02-27T22:37:07.517Z,2.10
2023-02-27T22:39:34.768Z,2.10
2023-02-27T22:42:05.281Z,2.10
2023-02-27T22:44:32.468Z,2.10
2023-02-27T22:46:59.792Z,2.10
2023-02-27T22:49:27.173Z,2.10
2023-02-27T22:51:54.612Z,2.10
2023-02-27T22:54:23.271Z,2.10
2023-02-27T22:56:55.838Z,2.00
2023-02-27T22:59:25.249Z,2.00
2023-02-27T23:01:54.003Z,2.00
2023-02-27T23:04:22.239Z,2.00
2023-02-27T23:06:52.480Z,2.00
2023-02-27T23:09:22.970Z,1.90
2023-02-27T23:11:50.388Z,1.90
2023-02-27T23:14:17.932Z,1.90
2023-02-27T23:16:46.696Z,1.90
2023-02-27T23:19:18.476Z,1.90
2023-02-27T23:21:45.865Z,1.90
2023-02-27T23:24:16.290Z,1.90
2023-02-27T23:26:47.191Z,1.80
2023-02-27T23:29:14.528Z,1.80
2023-02-27T23:31:42.466Z,1.70
2023-02-27T23:34:10.175Z,1.70
2023-02-27T23:36:39.222Z,1.60
2023-02-27T23:39:08.166Z,1.60
2023-02-27T23:41:35.751Z,1.60
2023-02-27T23:44:24.741Z,1.50
2023-02-27T23:46:52.072Z,1.50
2023-02-27T23:51:49.436Z,1.40
2023-02-27T23:54:16.552Z,1.30
2023-02-27T23:56:46.329Z,1.30
2023-02-27T23:59:13.497Z,1.30
